sensor_id;sensor_type;location;lat;lon;timestamp;P1;durP1;ratioP1;P2;durP2;ratioP2
4084;SDS011;2057;50.858;6.572;2023-09-12T00:00:12;9.60;;;6.03;;
4084;SDS011;2057;50.858;6.572;2023-09-12T00:02:40;11.07;;;5.73;;
4084;SDS011;2057;50.858;6.572;2023-09-12T00:05:05;19.10;;;6.17;;
4084;SDS011;2057;50.858;6.572;2023-09-12T00:07:31;14.63;;;6.20;;
4084;SDS011;2057;50.858;6.572;2023-09-12T00:09:56;11.07;;;6.30;;
4084;SDS011;2057;50.858;6.572;2023-09-12T00:12:24;18.53;;;6.70;;
4084;SDS011;2057;50.858;6.572;2023-09-12T00:14:50;12.23;;;5.70;;
4084;SDS011;2057;50.858;6.572;2023-09-12T00:17:16;14.20;;;5.60;;
4084;SDS011;2057;50.858;6.572;2023-09-12T00:19:48;6.60;;;5.60;;
4084;SDS011;2057;50.858;6.572;2023-09-12T00:22:17;9.47;;;7.07;;
4084;SDS011;2057;50.858;6.572;2023-09-12T00:24:44;23.00;;;6.93;;
4084;SDS011;2057;50.858;6.572;2023-09-12T00:27:10;10.23;;;6.87;;
4084;SDS011;2057;50.858;6.572;2023-09-12T00:29:35;13.80;;;6.43;;
4084;SDS011;2057;50.858;6.572;2023-09-12T00:32:00;16.83;;;5.47;;
4084;SDS011;2057;50.858;6.572;2023-09-12T00:34:26;8.50;;;6.53;;
4084;SDS011;2057;50.858;6.572;2023-09-12T00:36:53;14.57;;;6.60;;
4084;SDS011;2057;50.858;6.572;2023-09-12T00:39:19;13.40;;;7.63;;
4084;SDS011;2057;50.858;6.572;2023-09-12T00:41:44;17.13;;;8.37;;
4084;SDS011;2057;50.858;6.572;2023-09-12T00:44:09;13.50;;;7.47;;
4084;SDS011;2057;50.858;6.572;2023-09-12T00:46:35;13.90;;;8.20;;
4084;SDS011;2057;50.858;6.572;2023-09-12T00:49:01;9.40;;;5.83;;
4084;SDS011;2057;50.858;6.572;2023-09-12T00:51:31;10.17;;;6.97;;
4084;SDS011;2057;50.858;6.572;2023-09-12T00:53:57;14.43;;;8.47;;
4084;SDS011;2057;50.858;6.572;2023-09-12T00:56:23;10.20;;;7.37;;
4084;SDS011;2057;50.858;6.572;2023-09-12T00:58:50;19.33;;;8.90;;
4084;SDS011;2057;50.858;6.572;2023-09-12T01:01:17;16.30;;;9.60;;
4084;SDS011;2057;50.858;6.572;2023-09-12T01:03:43;10.03;;;7.77;;
4084;SDS011;2057;50.858;6.572;2023-09-12T01:06:11;14.73;;;8.87;;
4084;SDS011;2057;50.858;6.572;2023-09-12T01:08:39;12.83;;;9.90;;
4084;SDS011;2057;50.858;6.572;2023-09-12T01:11:04;12.90;;;8.30;;
4084;SDS011;2057;50.858;6.572;2023-09-12T01:13:31;10.20;;;8.10;;
4084;SDS011;2057;50.858;6.572;2023-09-12T01:15:56;16.40;;;9.47;;
4084;SDS011;2057;50.858;6.572;2023-09-12T01:18:25;11.80;;;8.10;;
4084;SDS011;2057;50.858;6.572;2023-09-12T01:20:57;11.97;;;8.37;;
4084;SDS011;2057;50.858;6.572;2023-09-12T01:23:50;18.33;;;9.20;;
4084;SDS011;2057;50.858;6.572;2023-09-12T01:29:03;18.47;;;8.10;;
4084;SDS011;2057;50.858;6.572;2023-09-12T01:31:31;19.30;;;8.90;;
4084;SDS011;2057;50.858;6.572;2023-09-12T01:33:58;11.37;;;7.90;;
4084;SDS011;2057;50.858;6.572;2023-09-12T01:36:36;14.30;;;9.83;;
4084;SDS011;2057;50.858;6.572;2023-09-12T01:39:02;12.30;;;9.10;;
4084;SDS011;2057;50.858;6.572;2023-09-12T01:41:27;20.77;;;9.50;;
4084;SDS011;2057;50.858;6.572;2023-09-12T01:43:56;23.97;;;8.87;;
4084;SDS011;2057;50.858;6.572;2023-09-12T01:46:22;20.97;;;8.87;;
4084;SDS011;2057;50.858;6.572;2023-09-12T01:48:51;15.53;;;9.73;;
4084;SDS011;2057;50.858;6.572;2023-09-12T01:51:20;15.60;;;9.70;;
4084;SDS011;2057;50.858;6.572;2023-09-12T01:53:47;16.17;;;9.97;;
4084;SDS011;2057;50.858;6.572;2023-09-12T01:56:14;21.27;;;8.83;;
4084;SDS011;2057;50.858;6.572;2023-09-12T01:58:42;20.03;;;9.57;;
4084;SDS011;2057;50.858;6.572;2023-09-12T02:01:08;15.10;;;10.43;;
4084;SDS011;2057;50.858;6.572;2023-09-12T02:03:43;23.80;;;10.67;;
4084;SDS011;2057;50.858;6.572;2023-09-12T02:06:08;22.00;;;10.10;;
4084;SDS011;2057;50.858;6.572;2023-09-12T02:08:36;28.37;;;9.93;;
4084;SDS011;2057;50.858;6.572;2023-09-12T02:11:01;24.90;;;11.70;;
4084;SDS011;2057;50.858;6.572;2023-09-12T02:13:27;24.53;;;10.63;;
4084;SDS011;2057;50.858;6.572;2023-09-12T02:15:58;27.73;;;11.10;;
4084;SDS011;2057;50.858;6.572;2023-09-12T02:18:24;22.87;;;10.07;;
4084;SDS011;2057;50.858;6.572;2023-09-12T02:20:49;22.73;;;10.50;;
4084;SDS011;2057;50.858;6.572;2023-09-12T02:23:15;17.63;;;9.17;;
4084;SDS011;2057;50.858;6.572;2023-09-12T02:25:40;22.23;;;10.03;;
4084;SDS011;2057;50.858;6.572;2023-09-12T02:28:08;26.37;;;11.00;;
4084;SDS011;2057;50.858;6.572;2023-09-12T02:30:37;22.83;;;11.43;;
4084;SDS011;2057;50.858;6.572;2023-09-12T02:33:05;22.03;;;10.30;;
4084;SDS011;2057;50.858;6.572;2023-09-12T02:35:34;23.07;;;11.23;;
4084;SDS011;2057;50.858;6.572;2023-09-12T02:37:59;17.47;;;12.20;;
4084;SDS011;2057;50.858;6.572;2023-09-12T02:40:30;14.50;;;11.43;;
4084;SDS011;2057;50.858;6.572;2023-09-12T02:42:58;22.00;;;14.33;;
4084;SDS011;2057;50.858;6.572;2023-09-12T02:45:31;24.50;;;15.30;;
4084;SDS011;2057;50.858;6.572;2023-09-12T02:47:59;21.60;;;12.90;;
4084;SDS011;2057;50.858;6.572;2023-09-12T02:50:24;27.67;;;14.03;;
4084;SDS011;2057;50.858;6.572;2023-09-12T02:52:55;22.20;;;14.00;;
4084;SDS011;2057;50.858;6.572;2023-09-12T02:55:22;36.23;;;17.17;;
4084;SDS011;2057;50.858;6.572;2023-09-12T02:57:53;30.67;;;18.83;;
4084;SDS011;2057;50.858;6.572;2023-09-12T03:00:18;30.63;;;18.63;;
4084;SDS011;2057;50.858;6.572;2023-09-12T03:02:45;23.77;;;16.27;;
4084;SDS011;2057;50.858;6.572;2023-09-12T03:05:12;24.97;;;17.57;;
4084;SDS011;2057;50.858;6.572;2023-09-12T03:07:38;22.57;;;16.00;;
4084;SDS011;2057;50.858;6.572;2023-09-12T03:10:06;38.07;;;18.77;;
4084;SDS011;2057;50.858;6.572;2023-09-12T03:12:32;25.60;;;16.27;;
4084;SDS011;2057;50.858;6.572;2023-09-12T03:15:00;27.57;;;15.40;;
4084;SDS011;2057;50.858;6.572;2023-09-12T03:17:28;25.43;;;15.00;;
4084;SDS011;2057;50.858;6.572;2023-09-12T03:20:00;27.50;;;17.20;;
4084;SDS011;2057;50.858;6.572;2023-09-12T03:22:26;32.87;;;16.40;;
4084;SDS011;2057;50.858;6.572;2023-09-12T03:24:51;27.13;;;17.27;;
4084;SDS011;2057;50.858;6.572;2023-09-12T03:27:19;32.87;;;16.07;;
4084;SDS011;2057;50.858;6.572;2023-09-12T03:29:46;30.80;;;18.17;;
4084;SDS011;2057;50.858;6.572;2023-09-12T03:32:12;27.37;;;17.70;;
4084;SDS011;2057;50.858;6.572;2023-09-12T03:34:37;33.40;;;18.13;;
4084;SDS011;2057;50.858;6.572;2023-09-12T03:37:03;36.67;;;19.70;;
4084;SDS011;2057;50.858;6.572;2023-09-12T03:39:28;32.83;;;18.60;;
4084;SDS011;2057;50.858;6.572;2023-09-12T03:41:53;36.60;;;19.30;;
4084;SDS011;2057;50.858;6.572;2023-09-12T03:44:19;30.63;;;19.80;;
4084;SDS011;2057;50.858;6.572;2023-09-12T03:46:44;21.17;;;15.43;;
4084;SDS011;2057;50.858;6.572;2023-09-12T03:49:09;29.73;;;16.33;;
4084;SDS011;2057;50.858;6.572;2023-09-12T03:51:35;25.67;;;14.90;;
4084;SDS011;2057;50.858;6.572;2023-09-12T03:54:02;23.00;;;14.43;;
4084;SDS011;2057;50.858;6.572;2023-09-12T03:56:28;29.00;;;15.90;;
4084;SDS011;2057;50.858;6.572;2023-09-12T03:58:53;35.77;;;16.20;;
4084;SDS011;2057;50.858;6.572;2023-09-12T04:01:22;25.33;;;14.80;;
4084;SDS011;2057;50.858;6.572;2023-09-12T04:03:48;26.10;;;15.20;;
4084;SDS011;2057;50.858;6.572;2023-09-12T04:06:16;19.37;;;13.43;;
4084;SDS011;2057;50.858;6.572;2023-09-12T04:08:41;18.00;;;12.27;;
4084;SDS011;2057;50.858;6.572;2023-09-12T04:11:16;18.80;;;12.70;;
4084;SDS011;2057;50.858;6.572;2023-09-12T04:13:43;17.73;;;13.50;;
4084;SDS011;2057;50.858;6.572;2023-09-12T04:16:09;24.70;;;14.57;;
4084;SDS011;2057;50.858;6.572;2023-09-12T04:18:34;29.57;;;15.30;;
4084;SDS011;2057;50.858;6.572;2023-09-12T04:21:01;17.00;;;13.33;;
4084;SDS011;2057;50.858;6.572;2023-09-12T04:23:29;23.27;;;15.47;;
4084;SDS011;2057;50.858;6.572;2023-09-12T04:25:54;32.50;;;16.07;;
4084;SDS011;2057;50.858;6.572;2023-09-12T04:28:20;30.47;;;19.37;;
4084;SDS011;2057;50.858;6.572;2023-09-12T04:31:01;32.27;;;19.20;;
4084;SDS011;2057;50.858;6.572;2023-09-12T04:33:28;32.17;;;20.17;;
4084;SDS011;2057;50.858;6.572;2023-09-12T04:36:00;27.43;;;19.63;;
4084;SDS011;2057;50.858;6.572;2023-09-12T04:38:27;29.37;;;18.77;;
4084;SDS011;2057;50.858;6.572;2023-09-12T04:40:58;24.77;;;18.43;;
4084;SDS011;2057;50.858;6.572;2023-09-12T04:43:30;27.30;;;19.30;;
4084;SDS011;2057;50.858;6.572;2023-09-12T04:45:55;33.17;;;17.97;;
4084;SDS011;2057;50.858;6.572;2023-09-12T04:48:21;31.77;;;19.13;;
4084;SDS011;2057;50.858;6.572;2023-09-12T04:50:46;28.90;;;17.53;;
4084;SDS011;2057;50.858;6.572;2023-09-12T04:53:15;28.93;;;20.50;;
4084;SDS011;2057;50.858;6.572;2023-09-12T04:55:40;39.33;;;22.30;;
4084;SDS011;2057;50.858;6.572;2023-09-12T04:58:06;34.50;;;22.30;;
4084;SDS011;2057;50.858;6.572;2023-09-12T05:00:32;31.40;;;23.30;;
4084;SDS011;2057;50.858;6.572;2023-09-12T05:03:01;34.03;;;24.63;;
4084;SDS011;2057;50.858;6.572;2023-09-12T05:05:27;38.37;;;24.37;;
4084;SDS011;2057;50.858;6.572;2023-09-12T05:07:52;55.70;;;27.73;;
4084;SDS011;2057;50.858;6.572;2023-09-12T05:10:20;46.90;;;29.20;;
4084;SDS011;2057;50.858;6.572;2023-09-12T05:12:46;42.00;;;25.80;;
4084;SDS011;2057;50.858;6.572;2023-09-12T05:15:11;45.10;;;25.23;;
4084;SDS011;2057;50.858;6.572;2023-09-12T05:17:36;42.17;;;27.17;;
4084;SDS011;2057;50.858;6.572;2023-09-12T05:20:02;45.67;;;28.23;;
4084;SDS011;2057;50.858;6.572;2023-09-12T05:22:30;42.03;;;26.00;;
4084;SDS011;2057;50.858;6.572;2023-09-12T05:24:55;47.17;;;27.23;;
4084;SDS011;2057;50.858;6.572;2023-09-12T05:27:23;47.07;;;28.77;;
4084;SDS011;2057;50.858;6.572;2023-09-12T05:29:48;38.00;;;26.40;;
4084;SDS011;2057;50.858;6.572;2023-09-12T05:32:14;38.10;;;24.80;;
4084;SDS011;2057;50.858;6.572;2023-09-12T05:34:41;46.23;;;27.60;;
4084;SDS011;2057;50.858;6.572;2023-09-12T05:37:06;41.27;;;27.10;;
4084;SDS011;2057;50.858;6.572;2023-09-12T05:39:32;55.60;;;29.30;;
4084;SDS011;2057;50.858;6.572;2023-09-12T05:41:59;42.70;;;30.03;;
4084;SDS011;2057;50.858;6.572;2023-09-12T05:44:25;47.97;;;27.83;;
4084;SDS011;2057;50.858;6.572;2023-09-12T05:46:50;50.10;;;28.03;;
4084;SDS011;2057;50.858;6.572;2023-09-12T05:49:15;44.87;;;29.83;;
4084;SDS011;2057;50.858;6.572;2023-09-12T05:51:41;40.87;;;27.00;;
4084;SDS011;2057;50.858;6.572;2023-09-12T05:54:09;52.27;;;29.77;;
4084;SDS011;2057;50.858;6.572;2023-09-12T05:56:37;48.97;;;30.63;;
4084;SDS011;2057;50.858;6.572;2023-09-12T05:59:05;45.77;;;31.07;;
4084;SDS011;2057;50.858;6.572;2023-09-12T06:01:33;53.37;;;30.80;;
4084;SDS011;2057;50.858;6.572;2023-09-12T06:03:59;51.23;;;29.77;;
4084;SDS011;2057;50.858;6.572;2023-09-12T06:06:24;58.33;;;30.67;;
4084;SDS011;2057;50.858;6.572;2023-09-12T06:08:52;63.83;;;31.60;;
4084;SDS011;2057;50.858;6.572;2023-09-12T06:11:23;60.47;;;32.73;;
4084;SDS011;2057;50.858;6.572;2023-09-12T06:13:49;57.97;;;31.73;;
4084;SDS011;2057;50.858;6.572;2023-09-12T06:16:17;66.37;;;32.97;;
4084;SDS011;2057;50.858;6.572;2023-09-12T06:18:42;52.57;;;30.93;;
4084;SDS011;2057;50.858;6.572;2023-09-12T06:21:10;56.03;;;32.77;;
4084;SDS011;2057;50.858;6.572;2023-09-12T06:23:36;55.97;;;33.20;;
4084;SDS011;2057;50.858;6.572;2023-09-12T06:26:01;58.70;;;33.60;;
4084;SDS011;2057;50.858;6.572;2023-09-12T06:28:30;54.07;;;31.83;;
4084;SDS011;2057;50.858;6.572;2023-09-12T06:31:00;43.63;;;31.40;;
4084;SDS011;2057;50.858;6.572;2023-09-12T06:33:28;49.23;;;32.87;;
4084;SDS011;2057;50.858;6.572;2023-09-12T06:35:53;51.47;;;34.17;;
4084;SDS011;2057;50.858;6.572;2023-09-12T06:38:19;47.17;;;31.53;;
4084;SDS011;2057;50.858;6.572;2023-09-12T06:40:45;54.70;;;34.53;;
4084;SDS011;2057;50.858;6.572;2023-09-12T06:43:16;48.57;;;31.93;;
4084;SDS011;2057;50.858;6.572;2023-09-12T06:45:45;47.87;;;32.10;;
4084;SDS011;2057;50.858;6.572;2023-09-12T06:48:10;57.00;;;31.57;;
4084;SDS011;2057;50.858;6.572;2023-09-12T06:50:35;46.77;;;28.27;;
4084;SDS011;2057;50.858;6.572;2023-09-12T06:53:04;41.97;;;27.23;;
4084;SDS011;2057;50.858;6.572;2023-09-12T06:55:31;38.83;;;25.73;;
4084;SDS011;2057;50.858;6.572;2023-09-12T06:57:59;32.13;;;25.17;;
4084;SDS011;2057;50.858;6.572;2023-09-12T07:00:25;37.37;;;27.80;;
4084;SDS011;2057;50.858;6.572;2023-09-12T07:02:51;34.07;;;25.60;;
4084;SDS011;2057;50.858;6.572;2023-09-12T07:05:17;32.00;;;24.43;;
4084;SDS011;2057;50.858;6.572;2023-09-12T07:07:42;31.30;;;22.97;;
4084;SDS011;2057;50.858;6.572;2023-09-12T07:10:07;35.90;;;24.60;;
4084;SDS011;2057;50.858;6.572;2023-09-12T07:12:33;27.13;;;20.70;;
4084;SDS011;2057;50.858;6.572;2023-09-12T07:15:03;30.40;;;18.30;;
4084;SDS011;2057;50.858;6.572;2023-09-12T07:17:29;25.87;;;18.30;;
4084;SDS011;2057;50.858;6.572;2023-09-12T07:19:54;28.83;;;20.10;;
4084;SDS011;2057;50.858;6.572;2023-09-12T07:22:22;35.80;;;20.73;;
4084;SDS011;2057;50.858;6.572;2023-09-12T07:24:51;33.50;;;16.87;;
4084;SDS011;2057;50.858;6.572;2023-09-12T07:27:22;25.30;;;18.53;;
4084;SDS011;2057;50.858;6.572;2023-09-12T07:29:47;19.80;;;14.30;;
4084;SDS011;2057;50.858;6.572;2023-09-12T07:32:13;34.50;;;19.30;;
4084;SDS011;2057;50.858;6.572;2023-09-12T07:34:38;22.30;;;15.60;;
4084;SDS011;2057;50.858;6.572;2023-09-12T07:37:10;25.43;;;14.10;;
4084;SDS011;2057;50.858;6.572;2023-09-12T07:39:35;18.90;;;14.50;;
4084;SDS011;2057;50.858;6.572;2023-09-12T07:42:03;19.63;;;14.13;;
4084;SDS011;2057;50.858;6.572;2023-09-12T07:44:31;19.97;;;14.07;;
4084;SDS011;2057;50.858;6.572;2023-09-12T07:46:56;25.03;;;14.90;;
4084;SDS011;2057;50.858;6.572;2023-09-12T07:49:21;18.43;;;13.30;;
4084;SDS011;2057;50.858;6.572;2023-09-12T07:51:49;21.10;;;13.07;;
4084;SDS011;2057;50.858;6.572;2023-09-12T07:54:17;27.80;;;13.97;;
4084;SDS011;2057;50.858;6.572;2023-09-12T07:56:42;20.40;;;11.03;;
4084;SDS011;2057;50.858;6.572;2023-09-12T07:59:11;14.40;;;11.97;;
4084;SDS011;2057;50.858;6.572;2023-09-12T08:01:39;16.90;;;11.13;;
4084;SDS011;2057;50.858;6.572;2023-09-12T08:04:04;11.50;;;9.90;;
4084;SDS011;2057;50.858;6.572;2023-09-12T08:06:35;17.53;;;12.07;;
4084;SDS011;2057;50.858;6.572;2023-09-12T08:09:00;21.77;;;11.10;;
4084;SDS011;2057;50.858;6.572;2023-09-12T08:11:25;28.13;;;11.03;;
4084;SDS011;2057;50.858;6.572;2023-09-12T08:13:52;25.23;;;10.90;;
4084;SDS011;2057;50.858;6.572;2023-09-12T08:16:17;24.87;;;14.00;;
4084;SDS011;2057;50.858;6.572;2023-09-12T08:18:42;24.00;;;13.53;;
4084;SDS011;2057;50.858;6.572;2023-09-12T08:21:09;26.53;;;13.60;;
4084;SDS011;2057;50.858;6.572;2023-09-12T08:23:35;19.40;;;12.47;;
4084;SDS011;2057;50.858;6.572;2023-09-12T08:26:01;21.47;;;14.60;;
4084;SDS011;2057;50.858;6.572;2023-09-12T08:28:37;24.60;;;18.10;;
4084;SDS011;2057;50.858;6.572;2023-09-12T08:31:04;28.27;;;18.20;;
4084;SDS011;2057;50.858;6.572;2023-09-12T08:33:30;24.97;;;16.50;;
4084;SDS011;2057;50.858;6.572;2023-09-12T08:35:55;23.33;;;16.30;;
4084;SDS011;2057;50.858;6.572;2023-09-12T08:38:28;25.00;;;16.23;;
4084;SDS011;2057;50.858;6.572;2023-09-12T08:40:53;22.00;;;15.97;;
4084;SDS011;2057;50.858;6.572;2023-09-12T08:43:19;20.33;;;15.10;;
4084;SDS011;2057;50.858;6.572;2023-09-12T08:45:45;18.67;;;14.50;;
4084;SDS011;2057;50.858;6.572;2023-09-12T08:48:12;19.53;;;14.00;;
4084;SDS011;2057;50.858;6.572;2023-09-12T08:50:38;17.40;;;12.77;;
4084;SDS011;2057;50.858;6.572;2023-09-12T08:53:04;19.80;;;13.87;;
4084;SDS011;2057;50.858;6.572;2023-09-12T08:55:30;18.47;;;13.23;;
4084;SDS011;2057;50.858;6.572;2023-09-12T08:57:58;22.53;;;13.87;;
4084;SDS011;2057;50.858;6.572;2023-09-12T09:00:27;27.93;;;13.20;;
4084;SDS011;2057;50.858;6.572;2023-09-12T09:02:53;22.40;;;15.03;;
4084;SDS011;2057;50.858;6.572;2023-09-12T09:05:19;20.20;;;15.50;;
4084;SDS011;2057;50.858;6.572;2023-09-12T09:07:45;22.30;;;14.63;;
4084;SDS011;2057;50.858;6.572;2023-09-12T09:10:22;20.30;;;16.30;;
4084;SDS011;2057;50.858;6.572;2023-09-12T09:12:48;23.97;;;15.83;;
4084;SDS011;2057;50.858;6.572;2023-09-12T09:15:23;24.60;;;15.70;;
4084;SDS011;2057;50.858;6.572;2023-09-12T09:17:53;19.17;;;14.53;;
4084;SDS011;2057;50.858;6.572;2023-09-12T09:23:01;19.47;;;13.63;;
4084;SDS011;2057;50.858;6.572;2023-09-12T09:25:35;20.97;;;13.60;;
4084;SDS011;2057;50.858;6.572;2023-09-12T09:28:16;15.80;;;14.10;;
4084;SDS011;2057;50.858;6.572;2023-09-12T09:30:43;22.23;;;15.80;;
4084;SDS011;2057;50.858;6.572;2023-09-12T09:33:10;17.97;;;15.13;;
4084;SDS011;2057;50.858;6.572;2023-09-12T09:35:37;19.92;;;16.48;;
4084;SDS011;2057;50.858;6.572;2023-09-12T09:38:04;18.10;;;15.47;;
4084;SDS011;2057;50.858;6.572;2023-09-12T09:40:31;18.50;;;14.27;;
4084;SDS011;2057;50.858;6.572;2023-09-12T09:43:03;22.63;;;13.57;;
4084;SDS011;2057;50.858;6.572;2023-09-12T09:45:31;16.03;;;13.20;;
4084;SDS011;2057;50.858;6.572;2023-09-12T09:48:04;17.07;;;11.50;;
4084;SDS011;2057;50.858;6.572;2023-09-12T09:50:35;14.50;;;11.90;;
4084;SDS011;2057;50.858;6.572;2023-09-12T09:53:04;15.40;;;12.30;;
4084;SDS011;2057;50.858;6.572;2023-09-12T09:55:31;14.73;;;11.10;;
4084;SDS011;2057;50.858;6.572;2023-09-12T09:57:57;17.10;;;12.47;;
4084;SDS011;2057;50.858;6.572;2023-09-12T10:00:23;20.73;;;11.83;;
4084;SDS011;2057;50.858;6.572;2023-09-12T10:02:50;14.43;;;10.70;;
4084;SDS011;2057;50.858;6.572;2023-09-12T10:05:26;14.70;;;12.47;;
4084;SDS011;2057;50.858;6.572;2023-09-12T10:07:54;19.57;;;12.57;;
4084;SDS011;2057;50.858;6.572;2023-09-12T10:10:22;15.37;;;13.77;;
4084;SDS011;2057;50.858;6.572;2023-09-12T10:12:57;12.83;;;10.67;;
4084;SDS011;2057;50.858;6.572;2023-09-12T10:15:25;15.70;;;13.23;;
4084;SDS011;2057;50.858;6.572;2023-09-12T10:17:57;21.50;;;14.90;;
4084;SDS011;2057;50.858;6.572;2023-09-12T10:20:35;26.07;;;13.73;;
4084;SDS011;2057;50.858;6.572;2023-09-12T10:23:46;21.80;;;15.40;;
4084;SDS011;2057;50.858;6.572;2023-09-12T10:26:01;17.37;;;14.53;;
4084;SDS011;2057;50.858;6.572;2023-09-12T10:28:28;14.10;;;12.20;;
4084;SDS011;2057;50.858;6.572;2023-09-12T10:30:57;15.50;;;13.47;;
4084;SDS011;2057;50.858;6.572;2023-09-12T10:33:24;20.20;;;14.47;;
4084;SDS011;2057;50.858;6.572;2023-09-12T10:35:51;19.83;;;15.10;;
4084;SDS011;2057;50.858;6.572;2023-09-12T10:38:18;17.47;;;13.93;;
4084;SDS011;2057;50.858;6.572;2023-09-12T10:40:45;19.30;;;13.37;;
4084;SDS011;2057;50.858;6.572;2023-09-12T10:43:13;20.07;;;15.30;;
4084;SDS011;2057;50.858;6.572;2023-09-12T10:45:39;22.13;;;14.27;;
4084;SDS011;2057;50.858;6.572;2023-09-12T10:48:05;14.30;;;11.40;;
4084;SDS011;2057;50.858;6.572;2023-09-12T10:50:38;16.47;;;11.77;;
4084;SDS011;2057;50.858;6.572;2023-09-12T10:53:11;17.83;;;11.90;;
4084;SDS011;2057;50.858;6.572;2023-09-12T10:55:39;19.67;;;12.87;;
4084;SDS011;2057;50.858;6.572;2023-09-12T10:58:09;14.20;;;12.73;;
4084;SDS011;2057;50.858;6.572;2023-09-12T11:00:37;24.03;;;15.73;;
4084;SDS011;2057;50.858;6.572;2023-09-12T11:05:54;21.47;;;14.13;;
4084;SDS011;2057;50.858;6.572;2023-09-12T11:08:21;17.27;;;14.07;;
4084;SDS011;2057;50.858;6.572;2023-09-12T11:13:46;26.40;;;14.67;;
4084;SDS011;2057;50.858;6.572;2023-09-12T11:16:27;22.37;;;13.87;;
4084;SDS011;2057;50.858;6.572;2023-09-12T11:21:44;18.40;;;15.10;;
4084;SDS011;2057;50.858;6.572;2023-09-12T11:24:10;13.60;;;11.63;;
4084;SDS011;2057;50.858;6.572;2023-09-12T11:26:51;20.13;;;15.83;;
4084;SDS011;2057;50.858;6.572;2023-09-12T11:29:21;19.93;;;14.50;;
4084;SDS011;2057;50.858;6.572;2023-09-12T11:31:58;18.07;;;15.37;;
4084;SDS011;2057;50.858;6.572;2023-09-12T11:34:25;18.73;;;15.50;;
4084;SDS011;2057;50.858;6.572;2023-09-12T11:36:54;19.87;;;15.30;;
4084;SDS011;2057;50.858;6.572;2023-09-12T11:39:25;19.23;;;14.70;;
4084;SDS011;2057;50.858;6.572;2023-09-12T11:41:58;22.73;;;15.57;;
4084;SDS011;2057;50.858;6.572;2023-09-12T11:44:25;17.77;;;13.30;;
4084;SDS011;2057;50.858;6.572;2023-09-12T11:46:51;13.97;;;12.10;;
4084;SDS011;2057;50.858;6.572;2023-09-12T11:49:18;16.27;;;13.73;;
4084;SDS011;2057;50.858;6.572;2023-09-12T11:51:51;18.73;;;12.70;;
4084;SDS011;2057;50.858;6.572;2023-09-12T11:54:20;19.07;;;12.77;;
4084;SDS011;2057;50.858;6.572;2023-09-12T11:56:51;17.90;;;11.97;;
4084;SDS011;2057;50.858;6.572;2023-09-12T11:59:28;17.80;;;13.23;;
4084;SDS011;2057;50.858;6.572;2023-09-12T12:01:54;16.57;;;12.33;;
4084;SDS011;2057;50.858;6.572;2023-09-12T12:04:23;15.60;;;13.17;;
4084;SDS011;2057;50.858;6.572;2023-09-12T12:06:52;18.10;;;11.13;;
4084;SDS011;2057;50.858;6.572;2023-09-12T12:09:18;14.73;;;9.17;;
4084;SDS011;2057;50.858;6.572;2023-09-12T12:11:46;18.40;;;9.53;;
4084;SDS011;2057;50.858;6.572;2023-09-12T12:14:17;11.33;;;9.47;;
4084;SDS011;2057;50.858;6.572;2023-09-12T12:16:44;22.50;;;8.40;;
4084;SDS011;2057;50.858;6.572;2023-09-12T12:19:13;23.00;;;10.17;;
4084;SDS011;2057;50.858;6.572;2023-09-12T12:21:39;13.10;;;8.77;;
4084;SDS011;2057;50.858;6.572;2023-09-12T12:24:13;10.53;;;8.40;;
4084;SDS011;2057;50.858;6.572;2023-09-12T12:26:43;8.80;;;7.90;;
4084;SDS011;2057;50.858;6.572;2023-09-12T12:29:11;10.07;;;7.87;;
4084;SDS011;2057;50.858;6.572;2023-09-12T12:31:39;13.50;;;7.83;;
4084;SDS011;2057;50.858;6.572;2023-09-12T12:34:07;13.77;;;7.97;;
4084;SDS011;2057;50.858;6.572;2023-09-12T12:36:32;13.70;;;8.50;;
4084;SDS011;2057;50.858;6.572;2023-09-12T12:38:58;12.70;;;8.40;;
4084;SDS011;2057;50.858;6.572;2023-09-12T12:43:53;9.73;;;6.30;;
4084;SDS011;2057;50.858;6.572;2023-09-12T12:46:24;12.00;;;6.73;;
4084;SDS011;2057;50.858;6.572;2023-09-12T12:48:53;9.30;;;6.50;;
4084;SDS011;2057;50.858;6.572;2023-09-12T12:51:25;8.33;;;6.53;;
4084;SDS011;2057;50.858;6.572;2023-09-12T12:53:51;6.53;;;5.60;;
4084;SDS011;2057;50.858;6.572;2023-09-12T12:56:22;10.20;;;5.57;;
4084;SDS011;2057;50.858;6.572;2023-09-12T12:58:55;8.10;;;6.63;;
4084;SDS011;2057;50.858;6.572;2023-09-12T13:01:23;11.80;;;5.90;;
4084;SDS011;2057;50.858;6.572;2023-09-12T13:03:49;8.93;;;5.80;;
4084;SDS011;2057;50.858;6.572;2023-09-12T13:06:17;13.07;;;7.30;;
4084;SDS011;2057;50.858;6.572;2023-09-12T13:08:43;7.00;;;6.30;;
4084;SDS011;2057;50.858;6.572;2023-09-12T13:11:11;17.33;;;6.53;;
4084;SDS011;2057;50.858;6.572;2023-09-12T13:13:40;19.40;;;6.57;;
4084;SDS011;2057;50.858;6.572;2023-09-12T13:16:07;8.40;;;6.33;;
4084;SDS011;2057;50.858;6.572;2023-09-12T13:18:34;11.43;;;6.97;;
4084;SDS011;2057;50.858;6.572;2023-09-12T13:21:01;7.67;;;5.93;;
4084;SDS011;2057;50.858;6.572;2023-09-12T13:23:30;10.47;;;5.37;;
4084;SDS011;2057;50.858;6.572;2023-09-12T13:25:56;6.93;;;5.33;;
4084;SDS011;2057;50.858;6.572;2023-09-12T13:28:22;5.93;;;4.33;;
4084;SDS011;2057;50.858;6.572;2023-09-12T13:30:53;7.03;;;5.03;;
4084;SDS011;2057;50.858;6.572;2023-09-12T13:33:19;7.30;;;5.13;;
4084;SDS011;2057;50.858;6.572;2023-09-12T13:35:44;9.10;;;5.20;;
4084;SDS011;2057;50.858;6.572;2023-09-12T13:38:12;8.17;;;4.60;;
4084;SDS011;2057;50.858;6.572;2023-09-12T13:40:38;10.83;;;5.50;;
4084;SDS011;2057;50.858;6.572;2023-09-12T13:43:05;6.33;;;4.67;;
4084;SDS011;2057;50.858;6.572;2023-09-12T13:45:30;8.30;;;5.60;;
4084;SDS011;2057;50.858;6.572;2023-09-12T13:47:57;7.73;;;5.30;;
4084;SDS011;2057;50.858;6.572;2023-09-12T13:50:23;8.67;;;4.57;;
4084;SDS011;2057;50.858;6.572;2023-09-12T13:52:49;6.70;;;5.30;;
4084;SDS011;2057;50.858;6.572;2023-09-12T13:55:14;5.47;;;4.23;;
4084;SDS011;2057;50.858;6.572;2023-09-12T13:57:42;12.10;;;4.77;;
4084;SDS011;2057;50.858;6.572;2023-09-12T14:00:07;6.20;;;5.00;;
4084;SDS011;2057;50.858;6.572;2023-09-12T14:02:36;6.10;;;5.27;;
4084;SDS011;2057;50.858;6.572;2023-09-12T14:05:02;6.70;;;5.20;;
4084;SDS011;2057;50.858;6.572;2023-09-12T14:07:29;11.77;;;5.13;;
4084;SDS011;2057;50.858;6.572;2023-09-12T14:09:58;6.87;;;4.97;;
4084;SDS011;2057;50.858;6.572;2023-09-12T14:12:23;5.73;;;5.17;;
4084;SDS011;2057;50.858;6.572;2023-09-12T14:14:51;7.20;;;5.27;;
4084;SDS011;2057;50.858;6.572;2023-09-12T14:17:21;8.93;;;4.47;;
4084;SDS011;2057;50.858;6.572;2023-09-12T14:19:46;8.00;;;4.00;;
4084;SDS011;2057;50.858;6.572;2023-09-12T14:22:12;7.20;;;3.87;;
4084;SDS011;2057;50.858;6.572;2023-09-12T14:24:37;5.00;;;4.43;;
4084;SDS011;2057;50.858;6.572;2023-09-12T14:27:05;7.33;;;4.97;;
4084;SDS011;2057;50.858;6.572;2023-09-12T14:29:31;7.83;;;5.10;;
4084;SDS011;2057;50.858;6.572;2023-09-12T14:31:58;5.53;;;4.63;;
4084;SDS011;2057;50.858;6.572;2023-09-12T14:34:24;5.90;;;4.80;;
4084;SDS011;2057;50.858;6.572;2023-09-12T14:40:15;7.90;;;4.53;;
4084;SDS011;2057;50.858;6.572;2023-09-12T14:42:43;6.73;;;4.10;;
4084;SDS011;2057;50.858;6.572;2023-09-12T14:45:13;9.07;;;4.27;;
4084;SDS011;2057;50.858;6.572;2023-09-12T14:47:39;5.13;;;4.63;;
4084;SDS011;2057;50.858;6.572;2023-09-12T14:50:04;5.37;;;4.37;;
4084;SDS011;2057;50.858;6.572;2023-09-12T14:52:30;6.30;;;4.10;;
4084;SDS011;2057;50.858;6.572;2023-09-12T14:54:59;10.97;;;3.80;;
4084;SDS011;2057;50.858;6.572;2023-09-12T14:57:25;10.33;;;5.17;;
4084;SDS011;2057;50.858;6.572;2023-09-12T14:59:54;6.43;;;4.50;;
4084;SDS011;2057;50.858;6.572;2023-09-12T15:02:20;4.07;;;3.63;;
4084;SDS011;2057;50.858;6.572;2023-09-12T15:04:46;5.30;;;3.50;;
4084;SDS011;2057;50.858;6.572;2023-09-12T15:07:11;8.57;;;4.20;;
4084;SDS011;2057;50.858;6.572;2023-09-12T15:09:37;5.93;;;3.93;;
4084;SDS011;2057;50.858;6.572;2023-09-12T15:12:05;7.17;;;4.50;;
4084;SDS011;2057;50.858;6.572;2023-09-12T15:14:31;6.00;;;4.80;;
4084;SDS011;2057;50.858;6.572;2023-09-12T15:16:56;4.83;;;3.80;;